Latest Weather Observations for Bundaberg

IDQ60801

Issued at 7:02 pm EST Saturday 6 February 2016 (issued every 30 minutes, with the page automatically refreshed every 10 minutes)

About weather observations | Map of weather stations | Latest weather observations for QLD | Other Formats
Station Details ID: 039128 Name: BUNDABERG AERO Lat: -24.91 Lon: 152.32 Height: 30.82 m
Data from the previous 72 hours. | See also: Recent months at Bundaberg
Date/Time
EST
Temp
°C
App
Temp
°C
Dew
Point
Rel
Hum
%
Delta-T
°C
Wind Press
QNH
hPa
Press
MSL
hPa
Rain
since 9 am
mm
Dir
 
Spd
km/h
Gust
km/h
Spd
kts
Gust
kts
06/07:00pm 22.8 21.9 21.4 92 0.9 ESE 28 48 15 26 1009.4 1009.2 3.4
06/06:43pm 23.4 24.7 22.4 94 0.7 SE 19 24 10 13 1008.9 1008.7 2.2
06/06:30pm 23.3 24.5 22.1 93 0.8 SE 19 30 10 16 1008.8 1008.6 2.0
06/06:00pm 23.1 22.9 21.2 89 1.2 ESE 24 32 13 17 1008.4 1008.2 1.6
06/05:30pm 24.4 25.7 22.3 88 1.4 SE 19 26 10 14 1007.9 1007.7 1.2
06/05:00pm 24.4 25.0 22.1 87 1.5 SE 22 30 12 16 1007.5 1007.3 1.2
06/04:30pm 24.2 23.7 22.1 88 1.4 SE 28 35 15 19 1007.4 1007.2 1.2
06/04:14pm 24.2 24.6 22.5 90 1.1 SE 24 32 13 17 1007.3 1007.1 1.2
06/04:01pm 24.0 25.1 22.4 91 1.1 SSE 20 30 11 16 1007.4 1007.2 1.0
06/04:00pm 23.9 24.9 22.2 90 1.1 SSE 20 30 11 16 1007.4 1007.2 1.0
06/03:30pm 24.4 25.0 22.8 91 1.1 SE 24 33 13 18 1007.4 1007.2 1.0
06/03:00pm 24.3 24.1 22.0 87 1.5 SE 26 39 14 21 1007.4 1007.2 1.0
06/02:30pm 24.5 25.1 22.8 90 1.1 SE 24 32 13 17 1007.3 1007.1 0.8
06/02:00pm 24.5 23.4 21.8 85 1.8 SE 30 43 16 23 1007.3 1007.1 0.4
06/01:30pm 26.1 24.2 22.0 78 2.7 SE 35 46 19 25 1007.4 1007.2 0.2
06/01:00pm 26.1 24.0 21.7 77 2.9 SE 35 43 19 23 1007.8 1007.6 0.2
06/12:30pm 26.2 25.5 21.8 77 2.9 SE 28 39 15 21 1008.0 1007.8 0.2
06/12:00pm 25.9 25.0 22.2 80 2.5 SE 30 43 16 23 1008.1 1007.9 0.2
06/11:30am 26.9 25.5 21.9 74 3.4 SE 32 39 17 21 1008.2 1008.0 0.0
06/11:00am 27.6 26.4 22.3 73 3.6 SE 32 41 17 22 1008.5 1008.3 0.0
06/10:30am 26.5 25.2 22.1 77 3.0 SE 32 39 17 21 1008.8 1008.6 0.0
06/10:00am 26.7 26.8 22.5 78 2.8 SE 26 35 14 19 1008.9 1008.7 0.0
06/09:30am 25.5 25.5 22.4 83 2.1 SE 26 37 14 20 1008.9 1008.7 0.0
06/09:00am 24.6 25.0 22.5 88 1.4 SE 24 33 13 18 1009.0 1008.8 8.2
06/08:30am 24.7 24.6 22.2 86 1.7 SE 26 32 14 17 1009.0 1008.8 8.2
06/08:00am 24.4 25.3 21.9 86 1.7 SE 20 30 11 16 1008.9 1008.7 8.2
06/07:30am 23.8 25.4 22.1 90 1.1 SSE 17 22 9 12 1008.8 1008.6 8.2
06/07:00am 23.5 25.4 22.1 92 0.9 SSE 15 24 8 13 1008.5 1008.3 8.2
06/06:30am 23.3 25.5 21.9 92 0.9 SSE 13 20 7 11 1008.1 1007.9 8.2
06/06:00am 23.0 24.8 21.8 93 0.8 SSE 15 22 8 12 1007.6 1007.4 8.2
06/05:30am 23.0 24.3 21.6 92 0.9 SSE 17 24 9 13 1007.0 1006.8 8.2
06/05:00am 23.1 24.4 21.7 92 0.9 SSE 17 22 9 12 1006.6 1006.4 8.2
06/04:30am 23.3 24.2 21.9 92 0.9 SSE 20 30 11 16 1006.0 1005.8 8.2
06/04:00am 23.1 24.5 21.9 93 0.8 SSE 17 22 9 12 1006.1 1005.9 8.2
06/03:30am 23.1 25.0 22.1 94 0.7 SSE 15 22 8 12 1006.1 1005.9 8.2
06/03:00am 23.2 25.1 22.0 93 0.8 SSE 15 22 8 12 1006.3 1006.1 8.2
06/02:30am 23.2 25.1 22.0 93 0.8 SSE 15 20 8 11 1006.3 1006.1 8.2
06/02:00am 23.1 25.0 22.1 94 0.7 S 15 22 8 12 1006.4 1006.2 8.2
06/01:30am 22.9 24.3 21.9 94 0.7 SSE 17 24 9 13 1006.5 1006.3 8.2
06/01:00am 22.8 25.0 21.8 94 0.7 SSE 13 19 7 10 1006.9 1006.7 8.2
06/12:30am 22.9 25.6 22.1 95 0.5 S 11 15 6 8 1007.3 1007.1 8.2
06/12:00am 23.0 25.4 22.2 95 0.5 SSE 13 19 7 10 1007.7 1007.5 8.2
 
Date/Time
EST
Temp
°C
App
Temp
°C
Dew
Point
Rel
Hum
%
Delta-T
°C
Wind Press
QNH
hPa
Press
MSL
hPa
Rain
since 9 am
mm
Dir
 
Spd
km/h
Gust
km/h
Spd
kts
Gust
kts
05/11:30pm 23.0 24.2 22.2 95 0.5 SSE 19 26 10 14 1008.0 1007.8 8.2
05/11:26pm 23.0 24.2 22.2 95 0.5 SSE 19 26 10 14 1008.2 1008.0 8.2
05/11:13pm 22.9 24.1 22.1 95 0.5 SSE 19 28 10 15 1008.4 1008.2 8.2
05/11:00pm 23.0 25.0 22.2 95 0.5 SSE 15 22 8 12 1008.4 1008.2 7.6
05/10:30pm 23.2 24.4 22.2 94 0.7 SSE 19 28 10 15 1008.5 1008.3 7.6
05/10:00pm 23.0 24.9 22.0 94 0.7 SSE 15 20 8 11 1008.7 1008.5 7.6
05/09:30pm 23.0 24.9 22.0 94 0.7 SSE 15 22 8 12 1008.8 1008.6 7.6
05/09:00pm 23.1 24.3 22.1 94 0.7 SE 19 24 10 13 1008.7 1008.5 7.6
05/08:30pm 23.4 23.9 22.0 92 0.9 SSE 22 32 12 17 1008.4 1008.2 7.4
05/08:00pm 23.2 24.2 21.8 92 0.9 SE 19 26 10 14 1008.1 1007.9 7.4
05/07:30pm 23.2 25.4 21.8 92 0.9 SSE 13 20 7 11 1007.9 1007.7 7.4
05/07:00pm 23.3 24.3 22.1 93 0.8 SE 20 26 11 14 1007.5 1007.3 7.4
05/06:30pm 23.3 23.9 22.1 93 0.8 SE 22 28 12 15 1007.2 1007.0 7.2
05/06:00pm 23.3 23.5 22.1 93 0.8 SE 24 32 13 17 1006.8 1006.6 7.0
05/05:52pm 23.3 23.6 22.3 94 0.7 SE 24 30 13 16 1006.8 1006.6 7.0
05/05:30pm 23.1 22.5 21.9 93 0.8 SE 28 37 15 20 1006.7 1006.5 6.8
05/05:25pm 23.2 22.5 21.8 92 0.9 SE 28 37 15 20 1006.6 1006.4 6.6
05/05:00pm 23.7 23.6 21.4 87 1.5 SSE 24 33 13 18 1006.2 1006.0 6.2
05/04:30pm 24.1 24.9 22.4 90 1.1 SSE 22 30 12 16 1006.0 1005.8 6.2
05/04:10pm 23.6 23.0 22.0 91 1.1 SE 28 37 15 20 1006.0 1005.8 6.2
05/04:00pm 23.3 22.5 21.7 91 1.1 SE 28 39 15 21 1006.1 1005.9 6.2
05/03:30pm 22.9 21.1 21.5 92 0.9 SE 33 50 18 27 1006.2 1006.0 5.4
05/03:27pm 23.0 22.3 21.8 93 0.8 SE 28 46 15 25 1006.3 1006.1 5.4
05/03:23pm 23.7 24.6 22.7 94 0.7 SE 22 33 12 18 1006.2 1006.0 4.6
05/03:01pm 23.5 23.6 22.5 94 0.7 SE 26 33 14 18 1006.1 1005.9 4.2
05/03:00pm 23.5 23.6 22.5 94 0.7 SE 26 33 14 18 1006.1 1005.9 4.2
05/02:30pm 23.0 22.2 21.6 92 0.9 ESE 28 48 15 26 1006.4 1006.2 3.4
05/02:29pm 23.2 23.0 22.0 93 0.8 ESE 26 35 14 19 1006.4 1006.2 3.2
05/02:08pm 23.9 24.4 22.7 93 0.8 ESE 24 33 13 18 1006.4 1006.2 2.2
05/02:00pm 24.0 25.0 22.8 93 0.8 SE 22 32 12 17 1006.5 1006.3 1.8
05/01:52pm 24.1 25.1 22.9 93 0.8 SE 22 30 12 16 1006.4 1006.2 1.6
05/01:30pm 24.0 24.1 22.6 92 0.9 SE 26 37 14 20 1006.4 1006.2 0.8
05/01:00pm 24.3 24.2 22.9 92 0.9 SE 28 37 15 20 1006.5 1006.3 0.2
05/12:30pm 24.3 24.7 21.8 86 1.7 SSE 22 30 12 16 1006.7 1006.5 0.0
05/12:01pm 24.5 25.8 22.6 89 1.3 SSE 20 28 11 15 1006.7 1006.5 0.0
05/12:00pm 24.6 26.0 22.8 90 1.2 SSE 20 28 11 15 1006.7 1006.5 0.0
05/11:57am 24.4 25.2 22.5 89 1.3 SSE 22 28 12 15 1006.7 1006.5 0.0
05/11:45am 24.1 24.8 22.2 89 1.3 SSE 22 32 12 17 1006.8 1006.6 0.0
05/11:42am 24.2 24.4 22.1 88 1.4 SSE 24 32 13 17 1006.9 1006.7 0.0
05/11:37am 24.7 25.1 22.4 87 1.5 SSE 24 32 13 17 1007.0 1006.8 0.0
05/11:30am 24.8 24.9 21.9 84 1.9 SE 24 32 13 17 1007.0 1006.8 0.0
05/11:26am 24.8 25.1 22.3 86 1.7 SE 24 32 13 17 1007.0 1006.8 0.0
05/11:14am 24.7 26.1 22.9 90 1.2 SSE 20 30 11 16 1007.1 1006.9 0.0
05/11:00am 24.5 24.8 22.2 87 1.5 SSE 24 32 13 17 1007.2 1007.0 0.0
05/10:30am 24.8 26.2 22.5 87 1.5 SSE 19 26 10 14 1007.5 1007.3 0.0
05/10:20am 24.7 25.7 22.2 86 1.7 SSE 20 28 11 15 1007.5 1007.3 0.0
05/10:00am 25.0 26.0 22.1 84 1.9 SSE 20 30 11 16 1007.4 1007.2 0.0
05/09:30am 24.7 26.3 22.2 86 1.7 SSE 17 24 9 13 1007.2 1007.0 0.0
05/09:00am 23.9 26.0 22.5 92 0.9 SSE 15 20 8 11 1007.2 1007.0 18.4
05/08:30am 23.8 25.2 21.9 89 1.3 SSE 17 22 9 12 1007.2 1007.0 18.4
05/08:00am 24.3 26.1 21.8 86 1.7 SSE 15 24 8 13 1006.9 1006.7 18.4
05/07:30am 23.8 24.8 21.7 88 1.4 SSE 19 26 10 14 1006.5 1006.3 18.4
05/07:00am 23.3 25.3 21.6 90 1.1 SSE 13 20 7 11 1006.1 1005.9 18.4
05/06:30am 23.0 24.8 21.1 89 1.2 SSE 13 19 7 10 1005.9 1005.7 18.4
05/06:00am 22.8 24.1 20.9 89 1.2 S 15 20 8 11 1005.4 1005.2 18.4
05/05:30am 22.8 24.2 21.1 90 1.1 S 15 22 8 12 1005.1 1004.9 18.4
05/05:00am 22.8 24.8 21.6 93 0.8 S 13 19 7 10 1004.5 1004.3 18.4
05/04:30am 22.7 24.8 21.7 94 0.7 SSE 13 20 7 11 1004.3 1004.1 18.4
05/04:00am 22.5 24.5 21.5 94 0.7 S 13 17 7 9 1004.3 1004.1 18.4
05/03:30am 22.4 24.3 21.4 94 0.7 S 13 17 7 9 1004.4 1004.2 18.4
05/03:00am 22.2 24.8 21.2 94 0.7 S 9 13 5 7 1004.5 1004.3 18.4
05/02:41am 22.0 23.6 20.8 93 0.8 SSE 13 19 7 10 1004.6 1004.4 18.4
05/02:31am 22.0 23.9 20.6 92 0.9 S 11 17 6 9 1004.6 1004.4 18.4
05/02:30am 22.0 23.9 20.6 92 0.9 S 11 17 6 9 1004.6 1004.4 18.4
05/02:00am 21.9 23.2 20.2 90 1.1 SSE 13 17 7 9 1004.7 1004.5 18.4
05/01:30am 21.9 22.3 19.8 88 1.3 SSE 17 22 9 12 1004.8 1004.6 18.4
05/01:00am 22.1 21.9 19.8 87 1.5 SE 20 28 11 15 1005.1 1004.9 18.4
05/12:30am 21.9 21.7 19.8 88 1.3 SE 20 28 11 15 1005.7 1005.5 18.4
05/12:00am 21.8 21.7 19.9 89 1.2 SSE 20 28 11 15 1006.0 1005.8 18.4
 
Date/Time
EST
Temp
°C
App
Temp
°C
Dew
Point
Rel
Hum
%
Delta-T
°C
Wind Press
QNH
hPa
Press
MSL
hPa
Rain
since 9 am
mm
Dir
 
Spd
km/h
Gust
km/h
Spd
kts
Gust
kts
04/11:30pm 22.1 20.8 20.7 92 0.9 SE 28 39 15 21 1006.3 1006.1 18.2
04/11:11pm 22.0 20.6 20.5 91 1.0 SE 28 41 15 22 1006.5 1006.3 18.2
04/11:00pm 22.3 20.4 20.9 92 0.9 SE 32 41 17 22 1006.5 1006.3 18.2
04/10:30pm 22.5 22.5 21.7 95 0.5 SSE 24 32 13 17 1007.0 1006.8 17.8
04/10:19pm 22.5 22.8 21.5 94 0.7 SSE 22 32 12 17 1007.0 1006.8 17.6
04/10:00pm 22.5 21.5 21.3 93 0.8 SSE 28 41 15 22 1006.9 1006.7 17.0
04/09:30pm 22.9 21.4 21.7 93 0.8 SE 32 41 17 22 1006.6 1006.4 15.8
04/09:20pm 22.9 22.1 21.7 93 0.8 SSE 28 44 15 24 1006.6 1006.4 15.0
04/09:00pm 23.3 22.0 22.1 93 0.8 SSE 32 43 17 23 1006.8 1006.6 13.8
04/08:30pm 23.6 22.7 22.2 92 0.9 SSE 30 39 16 21 1006.7 1006.5 11.8
04/08:11pm 24.0 23.4 22.6 92 0.9 SSE 30 39 16 21 1006.2 1006.0 10.2
04/08:00pm 24.2 23.3 22.8 92 0.9 SE 32 44 17 24 1005.9 1005.7 10.0
04/07:30pm 24.7 24.4 22.6 88 1.4 SE 28 35 15 19 1005.6 1005.4 9.8
04/07:00pm 24.9 23.4 22.8 88 1.4 SE 35 44 19 24 1004.6 1004.4 9.8
04/06:52pm 24.9 23.9 23.0 89 1.3 SE 33 44 18 24 1004.6 1004.4 9.8
04/06:30pm 25.2 24.4 23.4 90 1.2 SE 33 48 18 26 1004.2 1004.0 9.8
04/06:00pm 26.0 26.3 24.8 93 0.8 SE 32 41 17 22 1003.5 1003.3 9.8
04/05:30pm 26.2 28.9 25.0 93 0.8 SE 20 30 11 16 1003.0 1002.8 9.6
04/05:05pm 25.7 28.1 23.7 89 1.4 S 17 24 9 13 1002.9 1002.7 8.6
04/05:00pm 25.8 27.7 23.5 87 1.6 S 19 28 10 15 1002.9 1002.7 8.6
04/04:30pm 28.3 32.4 25.7 86 1.8 E 15 19 8 10 1001.7 1001.6 8.4
04/04:00pm 27.6 31.5 26.0 91 1.1 N 17 24 9 13 1001.5 1001.4 8.4
04/03:30pm 26.7 29.9 25.5 93 0.8 NNW 19 24 10 13 1001.9 1001.8 8.2
04/03:06pm 26.8 30.9 24.6 88 1.5 NNW 11 22 6 12 1002.0 1001.9 8.2
04/03:00pm 26.9 30.2 25.1 90 1.3 N 17 26 9 14 1001.9 1001.8 8.2
04/02:40pm 28.4 31.0 24.6 80 2.6 ESE 19 24 10 13 1002.1 1002.0 2.0
04/02:30pm 31.1 34.3 25.0 70 4.3 E 17 24 9 13 1001.7 1001.6 0.2
04/02:00pm 32.1 35.3 24.9 65 5.1 ENE 17 24 9 13 1001.6 1001.5 0.2
04/01:30pm 33.0 37.9 24.7 61 5.9 S 7 13 4 7 1002.4 1002.2 0.2
04/01:00pm 33.0 36.4 23.3 56 6.7 S 11 19 6 10 1002.7 1002.5 0.2
04/12:30pm 32.2 36.7 24.0 62 5.7 S 7 11 4 6 1003.0 1002.8 0.2
04/12:00pm 32.0 35.6 24.3 63 5.4 SSW 13 20 7 11 1003.5 1003.3 0.2
04/11:30am 31.1 34.2 24.2 66 4.8 SSW 15 22 8 12 1004.0 1003.8 0.2
04/11:00am 30.5 34.4 24.2 69 4.4 SSW 11 17 6 9 1004.4 1004.2 0.0
04/10:30am 30.4 34.0 24.3 70 4.3 SSW 13 17 7 9 1004.5 1004.3 0.0
04/10:00am 29.7 32.8 24.1 72 3.9 S 15 20 8 11 1004.1 1003.9 0.0
04/09:30am 29.4 33.0 24.3 74 3.5 S 13 17 7 9 1003.9 1003.7 0.0
04/09:00am 28.8 32.0 23.7 74 3.5 SSW 13 19 7 10 1003.7 1003.5 4.2
04/08:30am 27.9 31.2 23.9 79 2.8 SSW 13 19 7 10 1003.8 1003.6 4.2
04/08:00am 27.0 30.2 23.7 82 2.3 SW 13 20 7 11 1003.7 1003.5 4.2
04/07:30am 25.9 29.3 23.4 86 1.7 SW 11 17 6 9 1003.4 1003.2 4.2
04/07:00am 25.6 29.6 23.7 89 1.3 SSW 9 15 5 8 1003.3 1003.1 4.2
04/06:30am 24.9 28.5 23.1 90 1.2 SW 9 13 5 7 1003.3 1003.1 4.2
04/06:00am 24.5 28.1 23.1 92 1.0 SW 9 11 5 6 1003.1 1002.9 4.2
04/05:30am 24.5 28.0 22.9 91 1.1 SW 9 13 5 7 1002.6 1002.4 4.2
04/05:00am 24.7 27.9 23.1 91 1.1 SW 11 15 6 8 1002.3 1002.1 4.2
04/04:30am 24.8 27.6 23.0 90 1.2 WSW 13 15 7 8 1002.0 1001.9 4.2
04/04:00am 24.7 27.8 22.9 90 1.2 SW 11 13 6 7 1001.7 1001.6 4.2
04/03:30am 24.8 27.7 23.2 91 1.1 SW 13 17 7 9 1001.8 1001.7 4.2
04/03:00am 25.3 28.9 24.3 94 0.7 W 13 17 7 9 1001.6 1001.5 4.2
04/02:30am 25.6 29.8 24.7 95 0.6 W 11 13 6 7 1001.5 1001.4 4.2
04/02:00am 25.8 31.0 24.8 94 0.7 NW 6 9 3 5 1001.5 1001.4 4.2
04/01:30am 25.9 30.6 24.9 94 0.7 W 9 11 5 6 1002.4 1002.2 4.2
04/01:00am 25.9 29.8 24.9 94 0.7 WNW 13 19 7 10 1002.8 1002.6 4.2
04/12:30am 25.9 30.6 24.9 94 0.7 WNW 9 13 5 7 1003.4 1003.2 4.2
04/12:00am 26.0 30.4 25.0 94 0.7 NW 11 13 6 7 1004.0 1003.8 4.2
 
Date/Time
EST
Temp
°C
App
Temp
°C
Dew
Point
Rel
Hum
%
Delta-T
°C
Wind Press
QNH
hPa
Press
MSL
hPa
Rain
since 9 am
mm
Dir
 
Spd
km/h
Gust
km/h
Spd
kts
Gust
kts
03/11:30pm 26.1 30.9 25.1 94 0.7 NW 9 13 5 7 1004.2 1004.0 4.2
03/11:00pm 25.9 30.2 24.9 94 0.7 NNW 11 17 6 9 1004.5 1004.3 4.2
03/10:30pm 25.9 30.1 24.7 93 0.8 NW 11 15 6 8 1004.7 1004.5 4.2
03/10:00pm 25.8 29.3 24.8 94 0.7 NNW 15 19 8 10 1004.4 1004.2 4.2
03/09:30pm 26.1 31.0 25.2 95 0.6 N 9 13 5 7 1004.6 1004.4 4.2
03/09:00pm 26.2 32.8 25.3 95 0.6 CALM 0 7 0 4 1004.0 1003.8 4.2
03/08:30pm 26.1 30.6 25.2 95 0.6 NW 11 13 6 7 1003.2 1003.0 4.2
03/08:00pm 26.2 31.5 25.2 94 0.7 NW 7 9 4 5 1003.1 1002.9 4.2
03/07:30pm 26.3 30.0 25.1 93 0.8 WNW 15 19 8 10 1003.4 1003.2 4.2

Other Formats:

Comma delimited format used in spreadsheet applications
http://www.bom.gov.au/fwo/IDQ60801/IDQ60801.94387.axf

JavaScript Object Notation format (JSON) in row-major order
http://www.bom.gov.au/fwo/IDQ60801/IDQ60801.94387.json